sensor_id;sensor_type;location;lat;lon;timestamp;pressure;altitude;pressure_sealevel;temperature;humidity
54122;BME280;40029;58.708;50.190;2023-11-21T00:00:17;99971.31;;;-8.28;78.29
54122;BME280;40029;58.708;50.190;2023-11-21T00:02:48;99972.06;;;-8.30;78.26
54122;BME280;40029;58.708;50.190;2023-11-21T00:05:20;99976.53;;;-8.25;78.19
54122;BME280;40029;58.708;50.190;2023-11-21T00:07:54;99971.72;;;-8.16;78.02
54122;BME280;40029;58.708;50.190;2023-11-21T00:10:25;99959.63;;;-8.20;78.22
54122;BME280;40029;58.708;50.190;2023-11-21T00:12:57;99948.56;;;-8.19;78.20
54122;BME280;40029;58.708;50.190;2023-11-21T00:15:47;99946.97;;;-8.15;78.08
54122;BME280;40029;58.708;50.190;2023-11-21T00:18:18;99932.44;;;-8.15;78.22
54122;BME280;40029;58.708;50.190;2023-11-21T00:20:49;99930.69;;;-8.16;77.87
54122;BME280;40029;58.708;50.190;2023-11-21T00:23:20;99936.81;;;-8.12;77.95
54122;BME280;40029;58.708;50.190;2023-11-21T00:25:51;99932.66;;;-8.08;77.88
54122;BME280;40029;58.708;50.190;2023-11-21T00:28:41;99927.41;;;-8.11;78.27
54122;BME280;40029;58.708;50.190;2023-11-21T00:31:13;99918.19;;;-8.06;77.99
54122;BME280;40029;58.708;50.190;2023-11-21T00:34:03;99906.88;;;-8.11;78.12
54122;BME280;40029;58.708;50.190;2023-11-21T00:36:36;99914.53;;;-8.13;78.36
54122;BME280;40029;58.708;50.190;2023-11-21T00:39:07;99907.66;;;-8.14;78.60
54122;BME280;40029;58.708;50.190;2023-11-21T00:41:39;99902.06;;;-8.02;78.39
54122;BME280;40029;58.708;50.190;2023-11-21T00:44:11;99900.75;;;-8.17;78.49
54122;BME280;40029;58.708;50.190;2023-11-21T00:46:42;99904.03;;;-8.19;78.65
54122;BME280;40029;58.708;50.190;2023-11-21T00:49:13;99903.72;;;-8.04;78.40
54122;BME280;40029;58.708;50.190;2023-11-21T00:51:44;99905.41;;;-8.05;78.30
54122;BME280;40029;58.708;50.190;2023-11-21T00:54:15;99902.78;;;-8.06;78.34
54122;BME280;40029;58.708;50.190;2023-11-21T00:56:48;99904.63;;;-8.02;78.55
54122;BME280;40029;58.708;50.190;2023-11-21T00:59:19;99895.47;;;-7.96;78.53
54122;BME280;40029;58.708;50.190;2023-11-21T01:01:50;99886.97;;;-7.94;78.37
54122;BME280;40029;58.708;50.190;2023-11-21T01:04:22;99887.16;;;-7.88;78.13
54122;BME280;40029;58.708;50.190;2023-11-21T01:07:11;99886.06;;;-7.95;78.00
54122;BME280;40029;58.708;50.190;2023-11-21T01:09:42;99873.91;;;-8.01;78.70
54122;BME280;40029;58.708;50.190;2023-11-21T01:12:15;99869.44;;;-8.06;78.63
54122;BME280;40029;58.708;50.190;2023-11-21T01:14:48;99863.69;;;-7.99;78.59
54122;BME280;40029;58.708;50.190;2023-11-21T01:17:19;99864.53;;;-8.00;78.47
54122;BME280;40029;58.708;50.190;2023-11-21T01:19:53;99851.69;;;-8.00;78.18
54122;BME280;40029;58.708;50.190;2023-11-21T01:22:42;99856.84;;;-7.99;78.47
54122;BME280;40029;58.708;50.190;2023-11-21T01:25:13;99843.16;;;-7.99;78.56
54122;BME280;40029;58.708;50.190;2023-11-21T01:27:45;99851.88;;;-7.94;78.68
54122;BME280;40029;58.708;50.190;2023-11-21T01:30:16;99841.75;;;-7.89;78.37
54122;BME280;40029;58.708;50.190;2023-11-21T01:32:47;99836.13;;;-8.05;78.54
54122;BME280;40029;58.708;50.190;2023-11-21T01:35:18;99825.66;;;-8.11;79.23
54122;BME280;40029;58.708;50.190;2023-11-21T01:37:50;99822.31;;;-8.08;79.37
54122;BME280;40029;58.708;50.190;2023-11-21T01:40:22;99809.59;;;-8.05;79.21
54122;BME280;40029;58.708;50.190;2023-11-21T01:42:55;99815.66;;;-8.03;78.88
54122;BME280;40029;58.708;50.190;2023-11-21T01:45:45;99801.53;;;-7.90;78.83
54122;BME280;40029;58.708;50.190;2023-11-21T01:48:16;99811.63;;;-7.97;78.85
54122;BME280;40029;58.708;50.190;2023-11-21T01:50:47;99813.59;;;-7.88;78.60
54122;BME280;40029;58.708;50.190;2023-11-21T01:53:19;99810.22;;;-7.87;78.51
54122;BME280;40029;58.708;50.190;2023-11-21T01:55:51;99800.06;;;-7.84;78.30
54122;BME280;40029;58.708;50.190;2023-11-21T01:58:22;99800.75;;;-7.88;78.27
54122;BME280;40029;58.708;50.190;2023-11-21T02:01:12;99810.22;;;-7.87;78.84
54122;BME280;40029;58.708;50.190;2023-11-21T02:03:45;99815.41;;;-7.85;78.44
54122;BME280;40029;58.708;50.190;2023-11-21T02:06:16;99805.81;;;-7.89;78.55
54122;BME280;40029;58.708;50.190;2023-11-21T02:08:48;99806.78;;;-7.87;78.42
54122;BME280;40029;58.708;50.190;2023-11-21T02:11:19;99796.47;;;-7.89;78.47
54122;BME280;40029;58.708;50.190;2023-11-21T02:13:51;99792.06;;;-7.91;78.50
54122;BME280;40029;58.708;50.190;2023-11-21T02:16:24;99786.25;;;-7.87;78.64
54122;BME280;40029;58.708;50.190;2023-11-21T02:18:56;99779.31;;;-7.90;78.68
54122;BME280;40029;58.708;50.190;2023-11-21T02:21:28;99784.31;;;-7.93;78.41
54122;BME280;40029;58.708;50.190;2023-11-21T02:24:00;99777.56;;;-7.91;78.74
54122;BME280;40029;58.708;50.190;2023-11-21T02:26:31;99777.56;;;-7.91;78.71
54122;BME280;40029;58.708;50.190;2023-11-21T02:29:02;99764.88;;;-7.86;78.36
54122;BME280;40029;58.708;50.190;2023-11-21T02:31:54;99770.56;;;-7.95;79.18
54122;BME280;40029;58.708;50.190;2023-11-21T02:34:26;99763.16;;;-7.87;78.61
54122;BME280;40029;58.708;50.190;2023-11-21T02:37:15;99751.91;;;-7.91;78.61
54122;BME280;40029;58.708;50.190;2023-11-21T02:39:47;99755.19;;;-7.95;78.94
54122;BME280;40029;58.708;50.190;2023-11-21T02:42:18;99760.41;;;-7.92;78.80
54122;BME280;40029;58.708;50.190;2023-11-21T02:44:49;99750.25;;;-7.89;78.66
54122;BME280;40029;58.708;50.190;2023-11-21T02:47:20;99749.97;;;-7.98;78.57
54122;BME280;40029;58.708;50.190;2023-11-21T02:49:52;99740.06;;;-7.86;78.47
54122;BME280;40029;58.708;50.190;2023-11-21T02:52:41;99737.25;;;-7.93;nan
54122;BME280;40029;58.708;50.190;2023-11-21T02:55:12;99739.78;;;-7.95;78.65
54122;BME280;40029;58.708;50.190;2023-11-21T02:57:44;99732.91;;;-7.96;78.34
54122;BME280;40029;58.708;50.190;2023-11-21T03:00:15;99721.56;;;-8.03;79.06
54122;BME280;40029;58.708;50.190;2023-11-21T03:02:47;99730.53;;;-7.90;78.49
54122;BME280;40029;58.708;50.190;2023-11-21T03:05:18;99722.72;;;-7.93;78.35
54122;BME280;40029;58.708;50.190;2023-11-21T03:07:50;99712.38;;;-7.96;78.39
54122;BME280;40029;58.708;50.190;2023-11-21T03:10:21;99709.09;;;-7.92;78.83
54122;BME280;40029;58.708;50.190;2023-11-21T03:12:52;99707.09;;;-8.01;78.75
54122;BME280;40029;58.708;50.190;2023-11-21T03:15:23;99707.09;;;-8.01;79.24
54122;BME280;40029;58.708;50.190;2023-11-21T03:17:54;99694.81;;;-8.11;79.06
54122;BME280;40029;58.708;50.190;2023-11-21T03:20:25;99705.31;;;-8.03;78.94
54122;BME280;40029;58.708;50.190;2023-11-21T03:22:56;99706.41;;;-7.97;79.06
54122;BME280;40029;58.708;50.190;2023-11-21T03:25:28;99697.44;;;-8.09;79.53
54122;BME280;40029;58.708;50.190;2023-11-21T03:27:59;99694.03;;;-8.08;79.51
54122;BME280;40029;58.708;50.190;2023-11-21T03:30:30;99693.28;;;-8.04;79.83
54122;BME280;40029;58.708;50.190;2023-11-21T03:33:02;99686.44;;;-8.05;80.14
54122;BME280;40029;58.708;50.190;2023-11-21T03:35:34;99686.16;;;-8.15;79.79
54122;BME280;40029;58.708;50.190;2023-11-21T03:38:05;99680.44;;;-8.06;80.30
54122;BME280;40029;58.708;50.190;2023-11-21T03:40:36;99665.13;;;-8.03;79.98
54122;BME280;40029;58.708;50.190;2023-11-21T03:43:07;99681.59;;;-7.96;80.04
54122;BME280;40029;58.708;50.190;2023-11-21T03:45:39;99678.13;;;-7.98;79.79
54122;BME280;40029;58.708;50.190;2023-11-21T03:48:12;99668.75;;;-7.96;79.78
54122;BME280;40029;58.708;50.190;2023-11-21T03:50:44;99677.44;;;-7.92;79.64
54122;BME280;40029;58.708;50.190;2023-11-21T03:53:15;99674.88;;;-7.92;79.78
54122;BME280;40029;58.708;50.190;2023-11-21T03:55:46;99664.53;;;-7.94;79.34
54122;BME280;40029;58.708;50.190;2023-11-21T03:58:17;99664.72;;;-7.88;79.70
54122;BME280;40029;58.708;50.190;2023-11-21T04:00:48;99665.63;;;-7.87;78.94
54122;BME280;40029;58.708;50.190;2023-11-21T04:03:22;99656.22;;;-7.87;79.53
54122;BME280;40029;58.708;50.190;2023-11-21T04:05:53;99646.75;;;-7.88;79.28
54122;BME280;40029;58.708;50.190;2023-11-21T04:08:24;99646.97;;;-7.82;79.25
54122;BME280;40029;58.708;50.190;2023-11-21T04:10:56;99645.09;;;-7.86;78.95
54122;BME280;40029;58.708;50.190;2023-11-21T04:13:27;99651.06;;;-7.87;78.84
54122;BME280;40029;58.708;50.190;2023-11-21T04:15:58;99638.88;;;-7.94;78.92
54122;BME280;40029;58.708;50.190;2023-11-21T04:18:29;99632.31;;;-7.84;79.10
54122;BME280;40029;58.708;50.190;2023-11-21T04:21:01;99639.16;;;-7.85;78.93
54122;BME280;40029;58.708;50.190;2023-11-21T04:23:32;99646.97;;;-7.80;78.95
54122;BME280;40029;58.708;50.190;2023-11-21T04:26:03;99646.03;;;-7.84;78.87
54122;BME280;40029;58.708;50.190;2023-11-21T04:28:34;99647.19;;;-7.74;78.91
54122;BME280;40029;58.708;50.190;2023-11-21T04:31:05;99647.78;;;-7.83;78.84
54122;BME280;40029;58.708;50.190;2023-11-21T04:33:37;99640.28;;;-7.75;78.89
54122;BME280;40029;58.708;50.190;2023-11-21T04:36:09;99637.66;;;-7.78;78.93
54122;BME280;40029;58.708;50.190;2023-11-21T04:39:00;99634.19;;;-7.79;78.58
54122;BME280;40029;58.708;50.190;2023-11-21T04:41:31;99635.16;;;-7.75;79.26
54122;BME280;40029;58.708;50.190;2023-11-21T04:44:02;99628.34;;;-7.74;78.81
54122;BME280;40029;58.708;50.190;2023-11-21T04:46:33;99620.72;;;-7.71;78.71
54122;BME280;40029;58.708;50.190;2023-11-21T04:49:23;99612.25;;;-7.67;78.81
54122;BME280;40029;58.708;50.190;2023-11-21T04:51:54;99607.94;;;-7.70;78.96
54122;BME280;40029;58.708;50.190;2023-11-21T04:54:25;99590.00;;;-7.68;78.95
54122;BME280;40029;58.708;50.190;2023-11-21T04:56:56;99593.75;;;-7.86;79.31
54122;BME280;40029;58.708;50.190;2023-11-21T04:59:27;99587.22;;;-7.76;79.26
54122;BME280;40029;58.708;50.190;2023-11-21T05:02:17;99591.66;;;-7.70;78.88
54122;BME280;40029;58.708;50.190;2023-11-21T05:04:49;99600.91;;;-7.76;78.91
54122;BME280;40029;58.708;50.190;2023-11-21T05:07:21;99595.78;;;-7.76;78.96
54122;BME280;40029;58.708;50.190;2023-11-21T05:09:52;99597.69;;;-7.68;78.92
54122;BME280;40029;58.708;50.190;2023-11-21T05:12:24;99616.63;;;-7.65;78.99
54122;BME280;40029;58.708;50.190;2023-11-21T05:14:55;99618.94;;;-7.74;79.05
54122;BME280;40029;58.708;50.190;2023-11-21T05:17:26;99623.47;;;-7.65;79.20
54122;BME280;40029;58.708;50.190;2023-11-21T05:19:57;99621.81;;;-7.63;79.08
54122;BME280;40029;58.708;50.190;2023-11-21T05:22:29;99608.28;;;-7.58;78.83
54122;BME280;40029;58.708;50.190;2023-11-21T05:25:01;99602.25;;;-7.58;79.29
54122;BME280;40029;58.708;50.190;2023-11-21T05:27:34;99597.31;;;-7.52;78.62
54122;BME280;40029;58.708;50.190;2023-11-21T05:30:06;99593.78;;;-7.55;78.59
54122;BME280;40029;58.708;50.190;2023-11-21T05:32:40;99598.22;;;-7.50;78.62
54122;BME280;40029;58.708;50.190;2023-11-21T05:35:14;99604.09;;;-7.54;78.79
54122;BME280;40029;58.708;50.190;2023-11-21T05:37:49;99595.59;;;-7.51;78.73
54122;BME280;40029;58.708;50.190;2023-11-21T05:40:38;99601.28;;;-7.63;78.68
54122;BME280;40029;58.708;50.190;2023-11-21T05:43:09;99591.16;;;-7.57;78.76
54122;BME280;40029;58.708;50.190;2023-11-21T05:45:40;99586.06;;;-7.55;78.67
54122;BME280;40029;58.708;50.190;2023-11-21T05:48:11;99588.75;;;-7.51;78.57
54122;BME280;40029;58.708;50.190;2023-11-21T05:50:43;99569.00;;;-7.53;79.18
54122;BME280;40029;58.708;50.190;2023-11-21T05:53:32;99571.78;;;-7.46;78.79
54122;BME280;40029;58.708;50.190;2023-11-21T05:56:04;99568.31;;;-7.48;78.57
54122;BME280;40029;58.708;50.190;2023-11-21T05:58:35;99566.59;;;-7.47;78.90
54122;BME280;40029;58.708;50.190;2023-11-21T06:01:06;99560.66;;;-7.46;78.68
54122;BME280;40029;58.708;50.190;2023-11-21T06:03:39;99559.00;;;-7.44;78.91
54122;BME280;40029;58.708;50.190;2023-11-21T06:06:10;99559.09;;;-7.40;78.50
54122;BME280;40029;58.708;50.190;2023-11-21T06:08:42;99543.78;;;-7.37;78.36
54122;BME280;40029;58.708;50.190;2023-11-21T06:11:13;99539.53;;;-7.34;78.34
54122;BME280;40029;58.708;50.190;2023-11-21T06:13:44;99535.16;;;-7.39;78.27
54122;BME280;40029;58.708;50.190;2023-11-21T06:16:15;99529.22;;;-7.38;78.71
54122;BME280;40029;58.708;50.190;2023-11-21T06:18:49;99529.03;;;-7.44;78.63
54122;BME280;40029;58.708;50.190;2023-11-21T06:21:20;99524.84;;;-7.40;78.43
54122;BME280;40029;58.708;50.190;2023-11-21T06:23:52;99511.09;;;-7.42;78.23
54122;BME280;40029;58.708;50.190;2023-11-21T06:26:42;99501.78;;;-7.39;78.79
54122;BME280;40029;58.708;50.190;2023-11-21T06:29:13;99496.81;;;-7.31;78.71
54122;BME280;40029;58.708;50.190;2023-11-21T06:32:02;99507.38;;;-7.20;78.59
54122;BME280;40029;58.708;50.190;2023-11-21T06:34:35;99505.84;;;-7.13;78.72
54122;BME280;40029;58.708;50.190;2023-11-21T06:37:06;99515.34;;;-7.09;78.26
54122;BME280;40029;58.708;50.190;2023-11-21T06:39:37;99509.13;;;-7.18;78.45
54122;BME280;40029;58.708;50.190;2023-11-21T06:42:09;99504.88;;;-7.17;78.01
54122;BME280;40029;58.708;50.190;2023-11-21T06:44:41;99499.06;;;-7.10;78.07
54122;BME280;40029;58.708;50.190;2023-11-21T06:47:12;99488.78;;;-7.10;77.80
54122;BME280;40029;58.708;50.190;2023-11-21T06:49:43;99493.00;;;-7.12;78.18
54122;BME280;40029;58.708;50.190;2023-11-21T06:52:15;99490.50;;;-7.09;78.02
54122;BME280;40029;58.708;50.190;2023-11-21T06:54:47;99493.13;;;-7.07;78.19
54122;BME280;40029;58.708;50.190;2023-11-21T06:57:22;99490.28;;;-7.18;77.94
54122;BME280;40029;58.708;50.190;2023-11-21T06:59:53;99486.13;;;-7.13;77.85
54122;BME280;40029;58.708;50.190;2023-11-21T07:02:24;99497.22;;;-7.15;77.81
54122;BME280;40029;58.708;50.190;2023-11-21T07:04:56;99501.28;;;-7.24;78.26
54122;BME280;40029;58.708;50.190;2023-11-21T07:07:27;99506.59;;;-7.16;77.98
54122;BME280;40029;58.708;50.190;2023-11-21T07:09:59;99510.03;;;-7.17;78.39
54122;BME280;40029;58.708;50.190;2023-11-21T07:12:34;99503.50;;;-7.04;78.20
54122;BME280;40029;58.708;50.190;2023-11-21T07:15:06;99492.31;;;-7.05;78.08
54122;BME280;40029;58.708;50.190;2023-11-21T07:17:58;99492.91;;;-7.16;78.10
54122;BME280;40029;58.708;50.190;2023-11-21T07:20:29;99493.97;;;-7.07;78.25
54122;BME280;40029;58.708;50.190;2023-11-21T07:23:01;99497.31;;;-7.11;78.07
54122;BME280;40029;58.708;50.190;2023-11-21T07:25:50;99502.63;;;-7.03;77.86
54122;BME280;40029;58.708;50.190;2023-11-21T07:28:21;99503.22;;;-7.15;78.26
54122;BME280;40029;58.708;50.190;2023-11-21T07:30:52;99494.84;;;-7.08;78.36
54122;BME280;40029;58.708;50.190;2023-11-21T07:33:23;99489.69;;;-7.08;78.06
54122;BME280;40029;58.708;50.190;2023-11-21T07:35:54;99492.91;;;-7.16;78.59
54122;BME280;40029;58.708;50.190;2023-11-21T07:38:26;99485.50;;;-7.03;78.65
54122;BME280;40029;58.708;50.190;2023-11-21T07:40:59;99466.69;;;-7.02;78.37
54122;BME280;40029;58.708;50.190;2023-11-21T07:43:31;99459.13;;;-6.95;78.05
54122;BME280;40029;58.708;50.190;2023-11-21T07:46:05;99450.59;;;-6.94;78.13
54122;BME280;40029;58.708;50.190;2023-11-21T07:48:55;99447.16;;;-6.95;78.07
54122;BME280;40029;58.708;50.190;2023-11-21T07:51:45;99444.59;;;-6.95;77.93
54122;BME280;40029;58.708;50.190;2023-11-21T07:54:16;99439.25;;;-7.03;77.74
54122;BME280;40029;58.708;50.190;2023-11-21T07:57:06;99445.44;;;-6.94;78.06
54122;BME280;40029;58.708;50.190;2023-11-21T07:59:37;99447.13;;;-6.96;77.97
54122;BME280;40029;58.708;50.190;2023-11-21T08:02:08;99441.25;;;-6.91;77.63
54122;BME280;40029;58.708;50.190;2023-11-21T08:04:39;99441.38;;;-6.85;77.44
54122;BME280;40029;58.708;50.190;2023-11-21T08:07:10;99438.03;;;-6.81;77.74
54122;BME280;40029;58.708;50.190;2023-11-21T08:09:41;99427.94;;;-6.73;77.45
54122;BME280;40029;58.708;50.190;2023-11-21T08:12:13;99435.78;;;-6.67;76.82
54122;BME280;40029;58.708;50.190;2023-11-21T08:15:04;99424.53;;;-6.72;76.67
54122;BME280;40029;58.708;50.190;2023-11-21T08:17:36;99422.06;;;-6.67;77.11
54122;BME280;40029;58.708;50.190;2023-11-21T08:20:07;99419.63;;;-6.61;76.73
54122;BME280;40029;58.708;50.190;2023-11-21T08:22:42;99412.06;;;-6.53;76.59
54122;BME280;40029;58.708;50.190;2023-11-21T08:25:13;99397.66;;;-6.45;76.57
54122;BME280;40029;58.708;50.190;2023-11-21T08:27:44;99404.41;;;-6.50;76.13
54122;BME280;40029;58.708;50.190;2023-11-21T08:30:15;99396.69;;;-6.50;76.28
54122;BME280;40029;58.708;50.190;2023-11-21T08:33:06;99392.53;;;-6.45;75.95
54122;BME280;40029;58.708;50.190;2023-11-21T08:35:37;99401.09;;;-6.45;76.11
54122;BME280;40029;58.708;50.190;2023-11-21T08:38:09;99401.91;;;-6.47;76.02
54122;BME280;40029;58.708;50.190;2023-11-21T08:40:41;99407.94;;;-6.45;76.34
54122;BME280;40029;58.708;50.190;2023-11-21T08:43:12;99395.91;;;-6.46;76.21
54122;BME280;40029;58.708;50.190;2023-11-21T08:45:44;99386.28;;;-6.56;75.59
54122;BME280;40029;58.708;50.190;2023-11-21T08:48:15;99393.94;;;-6.60;76.37
54122;BME280;40029;58.708;50.190;2023-11-21T08:50:46;99390.53;;;-6.57;76.21
54122;BME280;40029;58.708;50.190;2023-11-21T08:53:17;99394.06;;;-6.53;75.46
54122;BME280;40029;58.708;50.190;2023-11-21T08:55:48;99383.88;;;-6.49;75.94
54122;BME280;40029;58.708;50.190;2023-11-21T08:58:20;99377.09;;;-6.45;74.97
54122;BME280;40029;58.708;50.190;2023-11-21T09:00:52;99366.09;;;-6.36;75.62
54122;BME280;40029;58.708;50.190;2023-11-21T09:03:42;99352.25;;;-6.43;75.60
54122;BME280;40029;58.708;50.190;2023-11-21T09:06:14;99352.91;;;-6.53;75.63
54122;BME280;40029;58.708;50.190;2023-11-21T09:08:45;99346.06;;;-6.51;74.96
54122;BME280;40029;58.708;50.190;2023-11-21T09:11:17;99343.69;;;-6.42;75.26
54122;BME280;40029;58.708;50.190;2023-11-21T09:13:48;99342.09;;;-6.35;74.97
54122;BME280;40029;58.708;50.190;2023-11-21T09:16:19;99339.25;;;-6.49;75.13
54122;BME280;40029;58.708;50.190;2023-11-21T09:18:50;99342.75;;;-6.47;75.22
54122;BME280;40029;58.708;50.190;2023-11-21T09:21:21;99345.16;;;-6.56;75.11
54122;BME280;40029;58.708;50.190;2023-11-21T09:23:52;99351.22;;;-6.51;75.46
54122;BME280;40029;58.708;50.190;2023-11-21T09:26:24;99350.56;;;-6.41;75.08
54122;BME280;40029;58.708;50.190;2023-11-21T09:28:55;99359.91;;;-6.46;75.41
54122;BME280;40029;58.708;50.190;2023-11-21T09:31:27;99357.63;;;-6.32;75.05
54122;BME280;40029;58.708;50.190;2023-11-21T09:33:58;99364.22;;;-6.44;75.19
54122;BME280;40029;58.708;50.190;2023-11-21T09:36:30;99365.91;;;-6.46;75.54
54122;BME280;40029;58.708;50.190;2023-11-21T09:39:01;99376.09;;;-6.52;75.21
54122;BME280;40029;58.708;50.190;2023-11-21T09:41:43;99362.50;;;-6.45;75.20
54122;BME280;40029;58.708;50.190;2023-11-21T09:44:45;99368.44;;;-6.49;75.31
54122;BME280;40029;58.708;50.190;2023-11-21T09:47:19;99387.34;;;-6.47;75.41
54122;BME280;40029;58.708;50.190;2023-11-21T09:49:54;99379.63;;;-6.47;75.39
54122;BME280;40029;58.708;50.190;2023-11-21T09:55:46;99380.03;;;-6.68;75.70
54122;BME280;40029;58.708;50.190;2023-11-21T09:58:21;99380.50;;;-6.87;76.33
54122;BME280;40029;58.708;50.190;2023-11-21T10:00:57;99380.78;;;-6.73;76.62
54122;BME280;40029;58.708;50.190;2023-11-21T10:03:30;99391.56;;;-6.90;77.21
54122;BME280;40029;58.708;50.190;2023-11-21T10:06:20;99389.31;;;-6.76;76.92
54122;BME280;40029;58.708;50.190;2023-11-21T10:09:11;99389.88;;;-6.89;77.46
54122;BME280;40029;58.708;50.190;2023-11-21T10:11:43;99382.09;;;-6.92;77.64
54122;BME280;40029;58.708;50.190;2023-11-21T10:14:16;99378.72;;;-6.90;77.16
54122;BME280;40029;58.708;50.190;2023-11-21T10:16:49;99375.84;;;-7.04;77.77
54122;BME280;40029;58.708;50.190;2023-11-21T10:19:21;99381.19;;;-6.94;77.53
54122;BME280;40029;58.708;50.190;2023-11-21T10:21:55;99383.97;;;-7.23;78.18
54122;BME280;40029;58.708;50.190;2023-11-21T10:24:28;99380.06;;;-7.07;78.20
54122;BME280;40029;58.708;50.190;2023-11-21T10:26:59;99385.03;;;-7.15;77.46
54122;BME280;40029;58.708;50.190;2023-11-21T10:29:33;99386.81;;;-7.11;77.83
54122;BME280;40029;58.708;50.190;2023-11-21T10:32:06;99378.34;;;-7.07;77.90
54122;BME280;40029;58.708;50.190;2023-11-21T10:34:37;99386.88;;;-7.09;78.36
54122;BME280;40029;58.708;50.190;2023-11-21T10:37:12;99376.41;;;-7.17;77.44
54122;BME280;40029;58.708;50.190;2023-11-21T10:39:44;99376.22;;;-7.26;78.59
54122;BME280;40029;58.708;50.190;2023-11-21T10:42:17;99369.53;;;-7.18;77.72
54122;BME280;40029;58.708;50.190;2023-11-21T10:44:49;99367.91;;;-7.14;77.56
54122;BME280;40029;58.708;50.190;2023-11-21T10:47:20;99362.75;;;-7.14;78.06
54122;BME280;40029;58.708;50.190;2023-11-21T10:49:53;99361.94;;;-7.12;77.89
54122;BME280;40029;58.708;50.190;2023-11-21T10:52:26;99369.78;;;-7.07;77.23
54122;BME280;40029;58.708;50.190;2023-11-21T10:54:57;99372.22;;;-7.12;77.42
54122;BME280;40029;58.708;50.190;2023-11-21T10:57:30;99373.94;;;-7.12;77.51
54122;BME280;40029;58.708;50.190;2023-11-21T11:00:20;99373.97;;;-7.11;77.36
54122;BME280;40029;58.708;50.190;2023-11-21T11:02:52;99371.66;;;-7.00;77.19
54122;BME280;40029;58.708;50.190;2023-11-21T11:05:27;99369.25;;;-6.92;77.44
54122;BME280;40029;58.708;50.190;2023-11-21T11:08:26;99363.97;;;-6.99;76.36
54122;BME280;40029;58.708;50.190;2023-11-21T11:10:58;99367.44;;;-6.96;76.87
54122;BME280;40029;58.708;50.190;2023-11-21T11:13:30;99365.84;;;-6.91;76.70
54122;BME280;40029;58.708;50.190;2023-11-21T11:16:20;99359.78;;;-6.95;76.47
54122;BME280;40029;58.708;50.190;2023-11-21T11:18:53;99357.28;;;-6.90;76.78
54122;BME280;40029;58.708;50.190;2023-11-21T11:27:37;99350.25;;;-6.99;76.60
54122;BME280;40029;58.708;50.190;2023-11-21T11:38:38;99355.16;;;-7.10;77.25
54122;BME280;40029;58.708;50.190;2023-11-21T11:41:09;99358.59;;;-7.09;77.26
54122;BME280;40029;58.708;50.190;2023-11-21T11:44:00;99359.56;;;-7.04;76.74
54122;BME280;40029;58.708;50.190;2023-11-21T11:46:44;99367.97;;;-7.11;77.34
54122;BME280;40029;58.708;50.190;2023-11-21T11:49:27;99359.38;;;-7.12;76.88
54122;BME280;40029;58.708;50.190;2023-11-21T11:52:36;99356.03;;;-7.09;77.28
54122;BME280;40029;58.708;50.190;2023-11-21T11:55:13;99354.00;;;-7.24;77.03
54122;BME280;40029;58.708;50.190;2023-11-21T11:57:47;99354.97;;;-7.18;77.20
54122;BME280;40029;58.708;50.190;2023-11-21T12:00:33;99363.63;;;-7.14;77.44
54122;BME280;40029;58.708;50.190;2023-11-21T12:03:08;99354.94;;;-7.21;77.04
54122;BME280;40029;58.708;50.190;2023-11-21T12:05:40;99348.00;;;-7.23;77.37
54122;BME280;40029;58.708;50.190;2023-11-21T12:08:14;99341.84;;;-7.31;77.78
54122;BME280;40029;58.708;50.190;2023-11-21T12:10:47;99342.66;;;-7.32;77.43
54122;BME280;40029;58.708;50.190;2023-11-21T12:13:20;99343.28;;;-7.43;78.50
54122;BME280;40029;58.708;50.190;2023-11-21T12:15:51;99342.66;;;-7.32;77.65
54122;BME280;40029;58.708;50.190;2023-11-21T12:18:23;99342.78;;;-7.28;77.43
54122;BME280;40029;58.708;50.190;2023-11-21T12:20:57;99335.75;;;-7.35;77.69
54122;BME280;40029;58.708;50.190;2023-11-21T12:23:48;99339.78;;;-7.46;78.13
54122;BME280;40029;58.708;50.190;2023-11-21T12:26:19;99344.06;;;-7.45;78.07
54122;BME280;40029;58.708;50.190;2023-11-21T12:28:53;99350.22;;;-7.39;78.01
54122;BME280;40029;58.708;50.190;2023-11-21T12:31:28;99351.00;;;-7.43;77.97
54122;BME280;40029;58.708;50.190;2023-11-21T12:34:18;99350.78;;;-7.52;78.55
54122;BME280;40029;58.708;50.190;2023-11-21T12:36:50;99339.78;;;-7.46;78.38
54122;BME280;40029;58.708;50.190;2023-11-21T12:39:22;99330.25;;;-7.52;78.51
54122;BME280;40029;58.708;50.190;2023-11-21T12:41:54;99341.16;;;-7.61;78.82
54122;BME280;40029;58.708;50.190;2023-11-21T12:44:25;99341.41;;;-7.50;78.62
54122;BME280;40029;58.708;50.190;2023-11-21T12:46:56;99335.41;;;-7.50;78.70
54122;BME280;40029;58.708;50.190;2023-11-21T12:49:27;99336.88;;;-7.60;79.53
54122;BME280;40029;58.708;50.190;2023-11-21T12:51:59;99335.22;;;-7.58;78.85
54122;BME280;40029;58.708;50.190;2023-11-21T12:54:48;99326.69;;;-7.57;79.06
54122;BME280;40029;58.708;50.190;2023-11-21T12:57:20;99325.25;;;-7.46;78.60
54122;BME280;40029;58.708;50.190;2023-11-21T12:59:51;99321.56;;;-7.57;78.75
54122;BME280;40029;58.708;50.190;2023-11-21T13:02:30;99315.59;;;-7.56;78.34
54122;BME280;40029;58.708;50.190;2023-11-21T13:05:01;99321.59;;;-7.55;78.55
54122;BME280;40029;58.708;50.190;2023-11-21T13:07:42;99320.44;;;-7.68;78.97
54122;BME280;40029;58.708;50.190;2023-11-21T13:10:17;99317.16;;;-7.63;78.97
54122;BME280;40029;58.708;50.190;2023-11-21T13:12:51;99322.38;;;-7.58;78.60
54122;BME280;40029;58.708;50.190;2023-11-21T13:15:23;99324.28;;;-7.49;78.20
54122;BME280;40029;58.708;50.190;2023-11-21T13:17:54;99327.56;;;-7.57;78.87
54122;BME280;40029;58.708;50.190;2023-11-21T13:20:28;99323.34;;;-7.53;78.60
54122;BME280;40029;58.708;50.190;2023-11-21T13:23:00;99321.47;;;-7.60;79.22
54122;BME280;40029;58.708;50.190;2023-11-21T13:25:32;99323.13;;;-7.62;79.14
54122;BME280;40029;58.708;50.190;2023-11-21T13:28:04;99319.16;;;-7.49;78.46
54122;BME280;40029;58.708;50.190;2023-11-21T13:30:35;99325.88;;;-7.54;78.87
54122;BME280;40029;58.708;50.190;2023-11-21T13:33:07;99325.91;;;-7.53;78.83
54122;BME280;40029;58.708;50.190;2023-11-21T13:35:39;99326.91;;;-7.48;78.86
54122;BME280;40029;58.708;50.190;2023-11-21T13:38:15;99325.16;;;-7.49;78.57
54122;BME280;40029;58.708;50.190;2023-11-21T13:40:54;99324.00;;;-7.62;79.06
54122;BME280;40029;58.708;50.190;2023-11-21T13:43:26;99317.31;;;-7.55;78.97